sensor_id;sensor_type;location;lat;lon;timestamp;pressure;altitude;pressure_sealevel;temperature;humidity
42945;BME280;28584;42.636;23.294;2023-06-19T00:00:38;162930.81;;;16.41;100.00
42945;BME280;28584;42.636;23.294;2023-06-19T00:03:05;162928.09;;;16.40;100.00
42945;BME280;28584;42.636;23.294;2023-06-19T00:05:30;162928.09;;;16.40;100.00
42945;BME280;28584;42.636;23.294;2023-06-19T00:07:56;162946.94;;;16.48;100.00
42945;BME280;28584;42.636;23.294;2023-06-19T00:10:21;162967.06;;;16.55;100.00
42945;BME280;28584;42.636;23.294;2023-06-19T00:12:47;162967.06;;;16.55;100.00
42945;BME280;28584;42.636;23.294;2023-06-19T00:15:12;162963.03;;;16.54;100.00
42945;BME280;28584;42.636;23.294;2023-06-19T00:17:38;162987.22;;;16.63;100.00
42945;BME280;28584;42.636;23.294;2023-06-19T00:20:04;162992.56;;;16.65;100.00
42945;BME280;28584;42.636;23.294;2023-06-19T00:22:31;162980.47;;;16.60;100.00
42945;BME280;28584;42.636;23.294;2023-06-19T00:24:56;162992.56;;;16.65;100.00
42945;BME280;28584;42.636;23.294;2023-06-19T00:27:22;162992.56;;;16.65;100.00
42945;BME280;28584;42.636;23.294;2023-06-19T00:29:47;162981.84;;;16.61;100.00
42945;BME280;28584;42.636;23.294;2023-06-19T00:32:13;162972.47;;;16.57;100.00
42945;BME280;28584;42.636;23.294;2023-06-19T00:34:38;162979.16;;;16.60;100.00
42945;BME280;28584;42.636;23.294;2023-06-19T00:37:04;162980.47;;;16.60;100.00
42945;BME280;28584;42.636;23.294;2023-06-19T00:39:29;162976.50;;;16.59;100.00
42945;BME280;28584;42.636;23.294;2023-06-19T00:41:55;162969.75;;;16.56;100.00
42945;BME280;28584;42.636;23.294;2023-06-19T00:44:21;162973.78;;;16.58;100.00
42945;BME280;28584;42.636;23.294;2023-06-19T00:46:50;162971.09;;;16.57;100.00
42945;BME280;28584;42.636;23.294;2023-06-19T00:49:16;162975.13;;;16.58;100.00
42945;BME280;28584;42.636;23.294;2023-06-19T00:51:42;162975.13;;;16.58;100.00
42945;BME280;28584;42.636;23.294;2023-06-19T00:54:07;162971.09;;;16.57;100.00
42945;BME280;28584;42.636;23.294;2023-06-19T00:56:33;162941.59;;;16.46;100.00
42945;BME280;28584;42.636;23.294;2023-06-19T00:59:06;162912.03;;;16.34;100.00
42945;BME280;28584;42.636;23.294;2023-06-19T01:01:32;162898.59;;;16.29;100.00
42945;BME280;28584;42.636;23.294;2023-06-19T01:03:58;162866.41;;;16.17;100.00
42945;BME280;28584;42.636;23.294;2023-06-19T01:06:27;162838.22;;;16.07;100.00
42945;BME280;28584;42.636;23.294;2023-06-19T01:09:06;162816.78;;;15.99;100.00
42945;BME280;28584;42.636;23.294;2023-06-19T01:11:58;162822.09;;;16.01;100.00
42945;BME280;28584;42.636;23.294;2023-06-19T01:14:26;162820.78;;;16.00;100.00
42945;BME280;28584;42.636;23.294;2023-06-19T01:16:53;162819.44;;;16.00;100.00
42945;BME280;28584;42.636;23.294;2023-06-19T01:19:20;162802.03;;;15.93;100.00
42945;BME280;28584;42.636;23.294;2023-06-19T01:21:47;162791.28;;;15.89;100.00
42945;BME280;28584;42.636;23.294;2023-06-19T01:24:13;162776.56;;;15.84;100.00
42945;BME280;28584;42.636;23.294;2023-06-19T01:26:39;162772.53;;;15.82;100.00
42945;BME280;28584;42.636;23.294;2023-06-19T01:29:04;162773.81;;;15.83;100.00
42945;BME280;28584;42.636;23.294;2023-06-19T01:31:34;162734.97;;;15.68;100.00
42945;BME280;28584;42.636;23.294;2023-06-19T01:34:03;162713.47;;;15.60;100.00
42945;BME280;28584;42.636;23.294;2023-06-19T01:36:29;162696.06;;;15.54;100.00
42945;BME280;28584;42.636;23.294;2023-06-19T01:38:57;162702.75;;;15.56;100.00
42945;BME280;28584;42.636;23.294;2023-06-19T01:41:24;162684.00;;;15.49;100.00
42945;BME280;28584;42.636;23.294;2023-06-19T01:43:51;162662.53;;;15.41;100.00
42945;BME280;28584;42.636;23.294;2023-06-19T01:46:16;162659.84;;;15.40;100.00
42945;BME280;28584;42.636;23.294;2023-06-19T01:48:42;162643.72;;;15.34;100.00
42945;BME280;28584;42.636;23.294;2023-06-19T01:51:07;162624.97;;;15.27;100.00
42945;BME280;28584;42.636;23.294;2023-06-19T01:53:33;162596.78;;;15.17;100.00
42945;BME280;28584;42.636;23.294;2023-06-19T01:55:59;162583.41;;;15.12;100.00
42945;BME280;28584;42.636;23.294;2023-06-19T01:58:25;162579.38;;;15.10;100.00
42945;BME280;28584;42.636;23.294;2023-06-19T02:00:51;162565.94;;;15.05;100.00
42945;BME280;28584;42.636;23.294;2023-06-19T02:03:16;162561.91;;;15.04;100.00
42945;BME280;28584;42.636;23.294;2023-06-19T02:05:42;162572.69;;;15.08;100.00
42945;BME280;28584;42.636;23.294;2023-06-19T02:08:08;162552.56;;;15.00;100.00
42945;BME280;28584;42.636;23.294;2023-06-19T02:10:33;162568.66;;;15.06;100.00
42945;BME280;28584;42.636;23.294;2023-06-19T02:12:58;162592.75;;;15.15;100.00
42945;BME280;28584;42.636;23.294;2023-06-19T02:15:24;162622.25;;;15.26;100.00
42945;BME280;28584;42.636;23.294;2023-06-19T02:17:49;162600.81;;;15.18;100.00
42945;BME280;28584;42.636;23.294;2023-06-19T02:20:20;162586.06;;;15.13;100.00
42945;BME280;28584;42.636;23.294;2023-06-19T02:22:45;162552.56;;;15.00;100.00
42945;BME280;28584;42.636;23.294;2023-06-19T02:25:11;162549.91;;;14.99;100.00
42945;BME280;28584;42.636;23.294;2023-06-19T02:27:36;162583.41;;;15.12;100.00
42945;BME280;28584;42.636;23.294;2023-06-19T02:30:02;162560.59;;;15.03;100.00
42945;BME280;28584;42.636;23.294;2023-06-19T02:32:28;162563.28;;;15.04;100.00
42945;BME280;28584;42.636;23.294;2023-06-19T02:34:53;162576.66;;;15.09;100.00
42945;BME280;28584;42.636;23.294;2023-06-19T02:37:19;162574.00;;;15.08;100.00
42945;BME280;28584;42.636;23.294;2023-06-19T02:39:44;162615.53;;;15.24;100.00
42945;BME280;28584;42.636;23.294;2023-06-19T02:42:09;162574.00;;;15.08;100.00
42945;BME280;28584;42.636;23.294;2023-06-19T02:44:35;162545.88;;;14.98;100.00
42945;BME280;28584;42.636;23.294;2023-06-19T02:47:01;162575.34;;;15.09;100.00
42945;BME280;28584;42.636;23.294;2023-06-19T02:49:26;162560.59;;;15.03;100.00
42945;BME280;28584;42.636;23.294;2023-06-19T02:51:51;162515.03;;;14.86;100.00
42945;BME280;28584;42.636;23.294;2023-06-19T02:54:17;162485.56;;;14.75;100.00
42945;BME280;28584;42.636;23.294;2023-06-19T02:56:42;162516.34;;;14.87;100.00
42945;BME280;28584;42.636;23.294;2023-06-19T02:59:08;162508.34;;;14.84;100.00
42945;BME280;28584;42.636;23.294;2023-06-19T03:01:33;162481.53;;;14.74;100.00
42945;BME280;28584;42.636;23.294;2023-06-19T03:03:59;162498.94;;;14.80;100.00
42945;BME280;28584;42.636;23.294;2023-06-19T03:06:24;162517.69;;;14.87;100.00
42945;BME280;28584;42.636;23.294;2023-06-19T03:08:51;162544.50;;;14.97;100.00
42945;BME280;28584;42.636;23.294;2023-06-19T03:11:16;162547.19;;;14.98;100.00
42945;BME280;28584;42.636;23.294;2023-06-19T03:13:53;162525.75;;;14.90;100.00
42945;BME280;28584;42.636;23.294;2023-06-19T03:16:20;162549.91;;;14.99;100.00
42945;BME280;28584;42.636;23.294;2023-06-19T03:18:46;162576.66;;;15.09;100.00
42945;BME280;28584;42.636;23.294;2023-06-19T03:21:15;162616.91;;;15.24;100.00
42945;BME280;28584;42.636;23.294;2023-06-19T03:23:40;162667.88;;;15.43;100.00
42945;BME280;28584;42.636;23.294;2023-06-19T03:26:07;162724.19;;;15.64;100.00
42945;BME280;28584;42.636;23.294;2023-06-19T03:28:32;162765.78;;;15.80;100.00
42945;BME280;28584;42.636;23.294;2023-06-19T03:30:58;162791.28;;;15.89;100.00
42945;BME280;28584;42.636;23.294;2023-06-19T03:33:23;162826.13;;;16.02;100.00
42945;BME280;28584;42.636;23.294;2023-06-19T03:35:49;162863.69;;;16.16;100.00
42945;BME280;28584;42.636;23.294;2023-06-19T03:38:14;162905.28;;;16.32;100.00
42945;BME280;28584;42.636;23.294;2023-06-19T03:40:39;162941.59;;;16.46;100.00
42945;BME280;28584;42.636;23.294;2023-06-19T03:43:05;162971.09;;;16.57;100.00
42945;BME280;28584;42.636;23.294;2023-06-19T03:45:30;162995.28;;;16.66;100.00
42945;BME280;28584;42.636;23.294;2023-06-19T03:47:56;163040.88;;;16.83;100.00
42945;BME280;28584;42.636;23.294;2023-06-19T03:50:21;163073.09;;;16.95;100.00
42945;BME280;28584;42.636;23.294;2023-06-19T03:52:47;163106.66;;;17.07;100.00
42945;BME280;28584;42.636;23.294;2023-06-19T03:55:12;163134.88;;;17.18;100.00
42945;BME280;28584;42.636;23.294;2023-06-19T03:57:37;163172.47;;;17.32;100.00
42945;BME280;28584;42.636;23.294;2023-06-19T04:00:03;163191.25;;;17.39;100.00
42945;BME280;28584;42.636;23.294;2023-06-19T04:02:33;163235.59;;;17.55;100.00
42945;BME280;28584;42.636;23.294;2023-06-19T04:04:58;163263.78;;;17.66;100.00
42945;BME280;28584;42.636;23.294;2023-06-19T04:07:24;163294.69;;;17.77;100.00
42945;BME280;28584;42.636;23.294;2023-06-19T04:09:49;163312.16;;;17.84;100.00
42945;BME280;28584;42.636;23.294;2023-06-19T04:12:14;163332.28;;;17.91;100.00
42945;BME280;28584;42.636;23.294;2023-06-19T04:14:40;163353.81;;;17.99;100.00
42945;BME280;28584;42.636;23.294;2023-06-19T04:17:05;163408.88;;;18.20;100.00
42945;BME280;28584;42.636;23.294;2023-06-19T04:19:30;163416.94;;;18.23;100.00
42945;BME280;28584;42.636;23.294;2023-06-19T04:21:56;163415.56;;;18.22;100.00
42945;BME280;28584;42.636;23.294;2023-06-19T04:24:21;163439.78;;;18.31;100.00
42945;BME280;28584;42.636;23.294;2023-06-19T04:26:47;163505.66;;;18.56;100.00
42945;BME280;28584;42.636;23.294;2023-06-19T04:29:12;163550.03;;;18.72;99.25
42945;BME280;28584;42.636;23.294;2023-06-19T04:31:44;163560.78;;;18.76;98.59
42945;BME280;28584;42.636;23.294;2023-06-19T04:34:21;163552.69;;;18.73;88.17
42945;BME280;28584;42.636;23.294;2023-06-19T04:36:47;163521.78;;;18.62;93.72
42945;BME280;28584;42.636;23.294;2023-06-19T04:39:12;163580.94;;;18.84;96.89
42945;BME280;28584;42.636;23.294;2023-06-19T04:41:38;163605.13;;;18.93;88.48
42945;BME280;28584;42.636;23.294;2023-06-19T04:44:04;163642.75;;;19.07;83.54
42945;BME280;28584;42.636;23.294;2023-06-19T04:46:30;163697.94;;;19.28;88.61
42945;BME280;28584;42.636;23.294;2023-06-19T04:48:55;163750.38;;;19.47;85.29
42945;BME280;28584;42.636;23.294;2023-06-19T04:51:21;163763.81;;;19.52;84.96
42945;BME280;28584;42.636;23.294;2023-06-19T04:53:49;163788.03;;;19.61;83.78
42945;BME280;28584;42.636;23.294;2023-06-19T04:56:15;163731.56;;;19.40;77.41
42945;BME280;28584;42.636;23.294;2023-06-19T04:58:41;163771.88;;;19.55;76.29
42945;BME280;28584;42.636;23.294;2023-06-19T05:01:12;163675.03;;;19.19;79.78
42945;BME280;28584;42.636;23.294;2023-06-19T05:03:37;163771.88;;;19.55;77.51
42945;BME280;28584;42.636;23.294;2023-06-19T05:06:03;163753.06;;;19.48;78.43
42945;BME280;28584;42.636;23.294;2023-06-19T05:08:28;163812.22;;;19.70;78.12
42945;BME280;28584;42.636;23.294;2023-06-19T05:10:54;163723.47;;;19.37;78.26
42945;BME280;28584;42.636;23.294;2023-06-19T05:13:20;163863.34;;;19.89;74.01
42945;BME280;28584;42.636;23.294;2023-06-19T05:15:45;163816.25;;;19.72;72.36
42945;BME280;28584;42.636;23.294;2023-06-19T05:18:11;163906.41;;;20.05;74.06
42945;BME280;28584;42.636;23.294;2023-06-19T05:20:36;163969.66;;;20.29;73.62
42945;BME280;28584;42.636;23.294;2023-06-19T05:23:01;163933.31;;;20.15;68.66
42945;BME280;28584;42.636;23.294;2023-06-19T05:25:27;164054.41;;;20.60;68.73
42945;BME280;28584;42.636;23.294;2023-06-19T05:27:52;163919.81;;;20.10;71.75
42945;BME280;28584;42.636;23.294;2023-06-19T05:30:18;163979.06;;;20.32;71.86
42945;BME280;28584;42.636;23.294;2023-06-19T05:32:43;163944.13;;;20.19;74.32
42945;BME280;28584;42.636;23.294;2023-06-19T05:35:09;164054.41;;;20.60;71.28
42945;BME280;28584;42.636;23.294;2023-06-19T05:37:34;164216.00;;;21.20;71.62
42945;BME280;28584;42.636;23.294;2023-06-19T05:40:00;164121.75;;;20.85;69.65
42945;BME280;28584;42.636;23.294;2023-06-19T05:42:25;164097.47;;;20.76;70.43
42945;BME280;28584;42.636;23.294;2023-06-19T05:44:51;164092.13;;;20.74;72.29
42945;BME280;28584;42.636;23.294;2023-06-19T05:47:16;163888.88;;;19.99;72.90
42945;BME280;28584;42.636;23.294;2023-06-19T05:49:44;163992.53;;;20.37;72.58
42945;BME280;28584;42.636;23.294;2023-06-19T05:52:09;164074.59;;;20.68;71.68
42945;BME280;28584;42.636;23.294;2023-06-19T05:54:35;164105.56;;;20.79;68.58
42945;BME280;28584;42.636;23.294;2023-06-19T05:57:00;164030.22;;;20.51;67.37
42945;BME280;28584;42.636;23.294;2023-06-19T05:59:26;164141.94;;;20.93;67.77
42945;BME280;28584;42.636;23.294;2023-06-19T06:01:51;164202.50;;;21.15;68.65
42945;BME280;28584;42.636;23.294;2023-06-19T06:04:18;164256.38;;;21.35;70.95
42945;BME280;28584;42.636;23.294;2023-06-19T06:06:44;164213.31;;;21.19;67.37
42945;BME280;28584;42.636;23.294;2023-06-19T06:09:09;164214.63;;;21.20;67.36
42945;BME280;28584;42.636;23.294;2023-06-19T06:11:37;164100.16;;;20.77;70.18
42945;BME280;28584;42.636;23.294;2023-06-19T06:14:02;164045.00;;;20.57;70.18
42945;BME280;28584;42.636;23.294;2023-06-19T06:16:28;164241.56;;;21.30;68.25
42945;BME280;28584;42.636;23.294;2023-06-19T06:18:53;164256.38;;;21.35;65.88
42945;BME280;28584;42.636;23.294;2023-06-19T06:21:18;164277.91;;;21.43;62.87
42945;BME280;28584;42.636;23.294;2023-06-19T06:23:44;164334.50;;;21.65;64.72
42945;BME280;28584;42.636;23.294;2023-06-19T06:26:10;164251.03;;;21.33;63.96
42945;BME280;28584;42.636;23.294;2023-06-19T06:28:35;164189.06;;;21.10;65.25
42945;BME280;28584;42.636;23.294;2023-06-19T06:31:01;164337.19;;;21.66;64.25
42945;BME280;28584;42.636;23.294;2023-06-19T06:33:26;164316.97;;;21.58;62.83
42945;BME280;28584;42.636;23.294;2023-06-19T06:35:54;164323.69;;;21.60;63.15
42945;BME280;28584;42.636;23.294;2023-06-19T06:38:20;164447.69;;;22.07;61.90
42945;BME280;28584;42.636;23.294;2023-06-19T06:40:45;164471.88;;;22.16;63.53
42945;BME280;28584;42.636;23.294;2023-06-19T06:43:11;164529.84;;;22.37;63.57
42945;BME280;28584;42.636;23.294;2023-06-19T06:45:37;164655.22;;;22.84;61.91
42945;BME280;28584;42.636;23.294;2023-06-19T06:48:07;164497.53;;;22.25;62.23
42945;BME280;28584;42.636;23.294;2023-06-19T06:50:33;164385.72;;;21.84;62.50
42945;BME280;28584;42.636;23.294;2023-06-19T06:52:58;164578.38;;;22.55;62.08
42945;BME280;28584;42.636;23.294;2023-06-19T06:55:24;164568.97;;;22.52;60.57
42945;BME280;28584;42.636;23.294;2023-06-19T06:57:49;164690.25;;;22.97;58.83
42945;BME280;28584;42.636;23.294;2023-06-19T07:00:15;164671.41;;;22.90;60.27
42945;BME280;28584;42.636;23.294;2023-06-19T07:02:40;164873.63;;;23.65;59.00
42945;BME280;28584;42.636;23.294;2023-06-19T07:05:09;164907.31;;;23.77;56.16
42945;BME280;28584;42.636;23.294;2023-06-19T07:07:35;164937.03;;;23.88;55.75
42945;BME280;28584;42.636;23.294;2023-06-19T07:10:01;164721.28;;;23.08;57.49
42945;BME280;28584;42.636;23.294;2023-06-19T07:12:26;164622.84;;;22.72;57.75
42945;BME280;28584;42.636;23.294;2023-06-19T07:14:55;164546.03;;;22.43;59.11
42945;BME280;28584;42.636;23.294;2023-06-19T07:17:20;164795.44;;;23.36;58.04
42945;BME280;28584;42.636;23.294;2023-06-19T07:19:46;164992.34;;;24.09;57.46
42945;BME280;28584;42.636;23.294;2023-06-19T07:22:12;165100.28;;;24.49;54.22
42945;BME280;28584;42.636;23.294;2023-06-19T07:24:40;164978.88;;;24.04;54.57
42945;BME280;28584;42.636;23.294;2023-06-19T07:27:05;164889.81;;;23.71;56.09
42945;BME280;28584;42.636;23.294;2023-06-19T07:29:31;164730.69;;;23.12;55.43
42945;BME280;28584;42.636;23.294;2023-06-19T07:31:57;164807.59;;;23.40;55.61
42945;BME280;28584;42.636;23.294;2023-06-19T07:34:23;164640.38;;;22.78;56.61
42945;BME280;28584;42.636;23.294;2023-06-19T07:36:48;164765.78;;;23.25;57.64
42945;BME280;28584;42.636;23.294;2023-06-19T07:39:14;164973.47;;;24.02;56.35
42945;BME280;28584;42.636;23.294;2023-06-19T07:41:39;164873.63;;;23.65;55.02
42945;BME280;28584;42.636;23.294;2023-06-19T07:44:05;164969.41;;;24.00;54.44
42945;BME280;28584;42.636;23.294;2023-06-19T07:46:30;164930.25;;;23.86;53.64
42945;BME280;28584;42.636;23.294;2023-06-19T07:48:56;164501.53;;;22.27;56.78
42945;BME280;28584;42.636;23.294;2023-06-19T07:51:21;164674.06;;;22.91;58.97
42945;BME280;28584;42.636;23.294;2023-06-19T07:53:46;164722.59;;;23.09;56.81
42945;BME280;28584;42.636;23.294;2023-06-19T07:56:12;164872.31;;;23.64;56.27
42945;BME280;28584;42.636;23.294;2023-06-19T07:58:37;164995.03;;;24.10;54.07
42945;BME280;28584;42.636;23.294;2023-06-19T08:01:03;165024.75;;;24.21;52.71
42945;BME280;28584;42.636;23.294;2023-06-19T08:03:28;164547.34;;;22.44;53.89
42945;BME280;28584;42.636;23.294;2023-06-19T08:05:53;164543.28;;;22.42;54.92
42945;BME280;28584;42.636;23.294;2023-06-19T08:08:19;164744.13;;;23.17;54.65
42945;BME280;28584;42.636;23.294;2023-06-19T08:10:44;164901.97;;;23.75;51.68
42945;BME280;28584;42.636;23.294;2023-06-19T08:13:10;164818.34;;;23.44;51.61
42945;BME280;28584;42.636;23.294;2023-06-19T08:15:37;164643.06;;;22.79;52.93
42945;BME280;28584;42.636;23.294;2023-06-19T08:18:02;164636.34;;;22.77;55.20
42945;BME280;28584;42.636;23.294;2023-06-19T08:20:28;164771.16;;;23.27;53.85
42945;BME280;28584;42.636;23.294;2023-06-19T08:22:53;164733.34;;;23.13;52.65
42945;BME280;28584;42.636;23.294;2023-06-19T08:25:19;164935.66;;;23.88;53.68
42945;BME280;28584;42.636;23.294;2023-06-19T08:27:44;165011.25;;;24.16;50.82
42945;BME280;28584;42.636;23.294;2023-06-19T08:30:13;165067.88;;;24.37;49.67
42945;BME280;28584;42.636;23.294;2023-06-19T08:32:38;165173.16;;;24.76;49.08
42945;BME280;28584;42.636;23.294;2023-06-19T08:35:04;165360.84;;;25.46;47.51
42945;BME280;28584;42.636;23.294;2023-06-19T08:37:29;165339.25;;;25.38;47.03
42945;BME280;28584;42.636;23.294;2023-06-19T08:39:55;165383.78;;;25.54;45.56
42945;BME280;28584;42.636;23.294;2023-06-19T08:42:22;165448.59;;;25.78;44.10
42945;BME280;28584;42.636;23.294;2023-06-19T08:44:48;165489.06;;;25.93;43.35
42945;BME280;28584;42.636;23.294;2023-06-19T08:47:14;165455.31;;;25.81;43.71
42945;BME280;28584;42.636;23.294;2023-06-19T08:49:39;165522.88;;;26.06;43.65
42945;BME280;28584;42.636;23.294;2023-06-19T08:52:05;165590.44;;;26.31;43.66
42945;BME280;28584;42.636;23.294;2023-06-19T08:54:31;165498.59;;;25.97;41.45
42945;BME280;28584;42.636;23.294;2023-06-19T08:57:03;165491.81;;;25.94;42.16
42945;BME280;28584;42.636;23.294;2023-06-19T08:59:30;165452.63;;;25.80;42.26
42945;BME280;28584;42.636;23.294;2023-06-19T09:01:57;165472.91;;;25.87;41.34
42945;BME280;28584;42.636;23.294;2023-06-19T09:04:25;165580.97;;;26.27;40.24
42945;BME280;28584;42.636;23.294;2023-06-19T09:06:55;165356.78;;;25.44;41.03
42945;BME280;28584;42.636;23.294;2023-06-19T09:09:22;165486.41;;;25.92;41.87
42945;BME280;28584;42.636;23.294;2023-06-19T09:14:34;165264.94;;;25.10;42.02
42945;BME280;28584;42.636;23.294;2023-06-19T09:17:02;165294.63;;;25.21;41.92
42945;BME280;28584;42.636;23.294;2023-06-19T09:19:27;165532.34;;;26.09;42.02
42945;BME280;28584;42.636;23.294;2023-06-19T09:21:52;165413.47;;;25.65;41.98
42945;BME280;28584;42.636;23.294;2023-06-19T09:24:18;165628.25;;;26.45;41.79
42945;BME280;28584;42.636;23.294;2023-06-19T09:26:43;165567.47;;;26.22;40.11
42945;BME280;28584;42.636;23.294;2023-06-19T09:29:13;165594.50;;;26.32;40.11
42945;BME280;28584;42.636;23.294;2023-06-19T09:31:39;165691.78;;;26.69;39.35
42945;BME280;28584;42.636;23.294;2023-06-19T09:34:06;165764.75;;;26.96;37.54
42945;BME280;28584;42.636;23.294;2023-06-19T09:36:32;165785.00;;;27.03;38.61
42945;BME280;28584;42.636;23.294;2023-06-19T09:38:59;165432.38;;;25.72;39.74
42945;BME280;28584;42.636;23.294;2023-06-19T09:41:25;165364.88;;;25.47;41.52
42945;BME280;28584;42.636;23.294;2023-06-19T09:43:55;165729.63;;;26.83;41.30
42945;BME280;28584;42.636;23.294;2023-06-19T09:46:31;165480.97;;;25.90;40.02
42945;BME280;28584;42.636;23.294;2023-06-19T09:49:00;165283.81;;;25.17;41.58
42945;BME280;28584;42.636;23.294;2023-06-19T09:51:31;165497.25;;;25.96;42.69
42945;BME280;28584;42.636;23.294;2023-06-19T09:53:58;165516.16;;;26.03;44.34
42945;BME280;28584;42.636;23.294;2023-06-19T09:56:27;165216.34;;;24.92;47.34
42945;BME280;28584;42.636;23.294;2023-06-19T09:58:56;165553.94;;;26.17;42.53
42945;BME280;28584;42.636;23.294;2023-06-19T10:01:22;165586.38;;;26.29;41.03
42945;BME280;28584;42.636;23.294;2023-06-19T10:03:48;164995.03;;;24.10;44.68
42945;BME280;28584;42.636;23.294;2023-06-19T10:06:16;165251.47;;;25.05;44.25
42945;BME280;28584;42.636;23.294;2023-06-19T10:08:43;165493.13;;;25.95;41.93
42945;BME280;28584;42.636;23.294;2023-06-19T10:11:12;165678.25;;;26.64;41.41
42945;BME280;28584;42.636;23.294;2023-06-19T10:13:40;165745.84;;;26.89;40.85
42945;BME280;28584;42.636;23.294;2023-06-19T10:16:06;165351.34;;;25.42;42.19
42945;BME280;28584;42.636;23.294;2023-06-19T10:18:43;165194.78;;;24.84;42.75
42945;BME280;28584;42.636;23.294;2023-06-19T10:21:19;164970.78;;;24.01;44.75
42945;BME280;28584;42.636;23.294;2023-06-19T10:23:54;165127.28;;;24.59;43.31
42945;BME280;28584;42.636;23.294;2023-06-19T10:26:20;164977.53;;;24.03;43.95
42945;BME280;28584;42.636;23.294;2023-06-19T10:28:46;165044.94;;;24.29;44.70
42945;BME280;28584;42.636;23.294;2023-06-19T10:31:15;165135.31;;;24.62;43.79
42945;BME280;28584;42.636;23.294;2023-06-19T10:33:40;164911.38;;;23.79;42.40
42945;BME280;28584;42.636;23.294;2023-06-19T10:36:22;165177.22;;;24.78;42.23
42945;BME280;28584;42.636;23.294;2023-06-19T10:38:48;165305.44;;;25.25;42.57
42945;BME280;28584;42.636;23.294;2023-06-19T10:41:18;165294.63;;;25.21;42.23
42945;BME280;28584;42.636;23.294;2023-06-19T10:43:58;165171.84;;;24.76;44.18
42945;BME280;28584;42.636;23.294;2023-06-19T10:46:28;165005.81;;;24.14;43.37
42945;BME280;28584;42.636;23.294;2023-06-19T10:48:55;164879.03;;;23.67;42.58
42945;BME280;28584;42.636;23.294;2023-06-19T10:51:26;164942.38;;;23.90;44.27
42945;BME280;28584;42.636;23.294;2023-06-19T10:53:56;165124.53;;;24.58;42.37
42945;BME280;28584;42.636;23.294;2023-06-19T10:56:23;165314.88;;;25.29;41.26
42945;BME280;28584;42.636;23.294;2023-06-19T10:58:56;165370.31;;;25.49;40.83
42945;BME280;28584;42.636;23.294;2023-06-19T11:01:22;165679.63;;;26.64;40.67
42945;BME280;28584;42.636;23.294;2023-06-19T11:03:47;165732.31;;;26.84;40.54
42945;BME280;28584;42.636;23.294;2023-06-19T11:06:19;165610.69;;;26.38;42.60
42945;BME280;28584;42.636;23.294;2023-06-19T11:08:51;165558.00;;;26.19;41.62
42945;BME280;28584;42.636;23.294;2023-06-19T11:11:16;165553.94;;;26.17;41.29
42945;BME280;28584;42.636;23.294;2023-06-19T11:13:42;165628.25;;;26.45;41.66
42945;BME280;28584;42.636;23.294;2023-06-19T11:16:08;165309.50;;;25.27;44.29
42945;BME280;28584;42.636;23.294;2023-06-19T11:18:33;165608.00;;;26.37;43.05
42945;BME280;28584;42.636;23.294;2023-06-19T11:20:59;165847.22;;;27.26;40.55
42945;BME280;28584;42.636;23.294;2023-06-19T11:23:29;165910.72;;;27.50;40.65
42945;BME280;28584;42.636;23.294;2023-06-19T11:26:05;166073.03;;;28.10;40.04
42945;BME280;28584;42.636;23.294;2023-06-19T11:28:31;166519.53;;;29.75;37.20
42945;BME280;28584;42.636;23.294;2023-06-19T11:31:03;166472.16;;;29.58;36.86
42945;BME280;28584;42.636;23.294;2023-06-19T11:33:29;166227.22;;;28.67;40.09
42945;BME280;28584;42.636;23.294;2023-06-19T11:35:59;166144.69;;;28.36;38.04
42945;BME280;28584;42.636;23.294;2023-06-19T11:38:25;166073.03;;;28.10;39.04
42945;BME280;28584;42.636;23.294;2023-06-19T11:40:52;165836.41;;;27.22;40.83
42945;BME280;28584;42.636;23.294;2023-06-19T11:43:25;166200.16;;;28.57;38.17
42945;BME280;28584;42.636;23.294;2023-06-19T11:45:51;166455.91;;;29.52;38.05
42945;BME280;28584;42.636;23.294;2023-06-19T11:48:24;166290.78;;;28.90;39.75
42945;BME280;28584;42.636;23.294;2023-06-19T11:50:50;166650.91;;;30.24;38.58
42945;BME280;28584;42.636;23.294;2023-06-19T11:53:17;166357.13;;;29.15;38.49
42945;BME280;28584;42.636;23.294;2023-06-19T11:55:42;165916.16;;;27.52;42.78
42945;BME280;28584;42.636;23.294;2023-06-19T11:58:09;166129.81;;;28.31;41.15
42945;BME280;28584;42.636;23.294;2023-06-19T12:00:36;166216.41;;;28.63;39.49
42945;BME280;28584;42.636;23.294;2023-06-19T12:03:01;165772.88;;;26.99;42.97
42945;BME280;28584;42.636;23.294;2023-06-19T12:05:27;165408.09;;;25.63;45.47
42945;BME280;28584;42.636;23.294;2023-06-19T12:07:52;165563.44;;;26.21;45.20
42945;BME280;28584;42.636;23.294;2023-06-19T12:10:18;165989.16;;;27.79;42.52
42945;BME280;28584;42.636;23.294;2023-06-19T12:12:43;166035.16;;;27.96;41.95
42945;BME280;28584;42.636;23.294;2023-06-19T12:15:09;165944.50;;;27.62;41.61
42945;BME280;28584;42.636;23.294;2023-06-19T12:17:34;165856.72;;;27.30;42.02
42945;BME280;28584;42.636;23.294;2023-06-19T12:20:03;165920.22;;;27.53;41.77
42945;BME280;28584;42.636;23.294;2023-06-19T12:22:33;165594.50;;;26.32;44.17
42945;BME280;28584;42.636;23.294;2023-06-19T12:24:58;165547.22;;;26.15;45.65
42945;BME280;28584;42.636;23.294;2023-06-19T12:27:24;165489.06;;;25.93;45.55
42945;BME280;28584;42.636;23.294;2023-06-19T12:29:49;165578.28;;;26.26;45.15
42945;BME280;28584;42.636;23.294;2023-06-19T12:32:14;165424.25;;;25.69;47.21
42945;BME280;28584;42.636;23.294;2023-06-19T12:34:40;165332.47;;;25.35;45.86